Time;durP1;ratioP1;P1;durP2;ratioP2;P2;SDS_P1;SDS_P2;PMS_P1;PMS_P2;Temp;Humidity;BMP_temperature;BMP_pressure;BME280_temperature;BME280_humidity;BME280_pressure;Samples;Min_cycle;Max_cycle;Signal;HPM_P1;HPM_P2
2022/01/05 00:02:13;;;;;;;1.50;0.83;;;6.00;99.90;;;;;;4989581;28;20276;-88
2022/01/05 00:04:39;;;;;;;1.33;0.90;;;6.00;99.90;;;;;;4972325;28;20683;-88
2022/01/05 00:07:06;;;;;;;2.00;1.03;;;5.90;99.90;;;;;;4956994;28;20829;-88
2022/01/05 00:09:33;;;;;;;18.90;1.23;;;6.00;99.90;;;;;;4972230;28;20212;-88
2022/01/05 00:11:59;;;;;;;0.47;0.47;;;6.00;99.90;;;;;;4989013;28;20247;-90
2022/01/05 00:14:25;;;;;;;6.57;0.50;;;6.00;99.90;;;;;;4971997;28;20184;-88
2022/01/05 00:16:51;;;;;;;0.37;0.37;;;6.00;99.90;;;;;;4988932;28;20324;-88
2022/01/05 00:19:17;;;;;;;0.20;0.20;;;5.90;99.90;;;;;;4971834;28;20224;-89
2022/01/05 00:21:43;;;;;;;0.40;0.40;;;5.90;99.90;;;;;;4955592;28;20219;-88
2022/01/05 00:24:08;;;;;;;0.40;0.40;;;5.80;99.90;;;;;;4971887;28;20212;-90
2022/01/05 00:26:35;;;;;;;0.60;0.50;;;5.80;99.90;;;;;;4988124;28;20215;-88
2022/01/05 00:29:01;;;;;;;6.60;0.63;;;5.70;99.90;;;;;;4965766;28;20258;-88
2022/01/05 00:31:27;;;;;;;1.50;1.03;;;5.70;99.90;;;;;;4987749;28;20216;-89
2022/01/05 00:33:54;;;;;;;1.90;0.67;;;5.70;99.90;;;;;;4971191;28;20220;-87
2022/01/05 00:36:20;;;;;;;0.67;0.67;;;5.60;99.90;;;;;;4986903;28;21141;-89
2022/01/05 00:38:46;;;;;;;0.30;0.30;;;5.70;99.90;;;;;;4988551;28;20294;-88
2022/01/05 00:41:12;;;;;;;0.83;0.60;;;5.80;99.90;;;;;;4971053;28;20196;-89
2022/01/05 00:43:38;;;;;;;0.93;0.87;;;5.80;99.90;;;;;;4971684;28;20306;-88
2022/01/05 00:46:04;;;;;;;0.30;0.30;;;5.80;99.90;;;;;;4987296;28;20342;-88
2022/01/05 00:48:32;;;;;;;1.00;1.00;;;5.70;99.90;;;;;;4971355;28;20212;-89
2022/01/05 00:51:02;;;;;;;2.00;1.23;;;5.70;99.90;;;;;;4987381;28;20220;-88
2022/01/05 00:53:28;;;;;;;3.70;1.57;;;5.70;99.90;;;;;;4987683;28;20200;-88
2022/01/05 00:55:54;;;;;;;10.73;0.77;;;5.60;99.90;;;;;;4972073;28;20279;-88
2022/01/05 00:58:19;;;;;;;0.67;0.50;;;5.70;99.90;;;;;;4954095;28;20299;-88
2022/01/05 01:00:45;;;;;;;0.30;0.30;;;5.70;99.90;;;;;;4970228;28;20271;-88
2022/01/05 01:03:11;;;;;;;4.53;1.47;;;5.70;99.90;;;;;;4971384;28;20254;-88
2022/01/05 01:05:37;;;;;;;0.30;0.30;;;5.70;99.90;;;;;;4955576;28;20558;-88
2022/01/05 01:08:03;;;;;;;5.30;0.63;;;5.70;99.90;;;;;;4971397;28;21251;-89
2022/01/05 01:10:29;;;;;;;1.27;1.27;;;5.60;99.90;;;;;;4970965;28;20209;-88
2022/01/05 01:12:54;;;;;;;0.30;0.30;;;5.60;99.90;;;;;;4970789;28;20212;-90
2022/01/05 01:15:20;;;;;;;2.73;0.87;;;5.60;99.90;;;;;;4954331;28;20254;-89
2022/01/05 01:17:46;;;;;;;26.17;1.80;;;5.60;99.90;;;;;;4987042;28;20904;-88
2022/01/05 01:20:12;;;;;;;0.47;0.47;;;5.60;99.90;;;;;;4971403;28;20731;-88
2022/01/05 01:22:38;;;;;;;1.60;0.90;;;5.60;99.90;;;;;;4986549;28;21183;-89
2022/01/05 01:25:05;;;;;;;6.03;0.67;;;5.50;99.90;;;;;;4968761;28;20339;-90
2022/01/05 01:27:31;;;;;;;0.50;0.50;;;5.70;99.90;;;;;;4961772;28;20724;-89
2022/01/05 01:29:57;;;;;;;0.20;0.20;;;5.70;99.90;;;;;;4955222;28;20298;-89
2022/01/05 01:32:23;;;;;;;5.50;1.00;;;5.70;99.90;;;;;;4986529;28;20184;-90
2022/01/05 01:34:49;;;;;;;0.60;0.60;;;5.70;99.90;;;;;;4969075;28;20301;-88
2022/01/05 01:37:15;;;;;;;1.33;1.33;;;5.70;99.90;;;;;;4986980;28;20219;-88
2022/01/05 01:39:41;;;;;;;1.80;0.97;;;5.70;99.90;;;;;;4987074;28;20575;-88
2022/01/05 01:42:07;;;;;;;0.30;0.30;;;5.70;99.90;;;;;;4970941;28;20219;-89
2022/01/05 01:44:33;;;;;;;1.10;0.97;;;5.80;99.90;;;;;;4954559;28;21370;-89
2022/01/05 01:46:59;;;;;;;14.00;0.83;;;5.80;99.90;;;;;;4954936;28;20192;-88
2022/01/05 01:49:24;;;;;;;0.60;0.60;;;5.80;99.90;;;;;;4954681;28;20223;-88
2022/01/05 01:51:50;;;;;;;0.83;0.70;;;5.80;99.90;;;;;;4986888;28;20214;-89
2022/01/05 01:54:17;;;;;;;0.30;0.30;;;5.80;99.90;;;;;;4954367;28;20235;-89
2022/01/05 01:56:46;;;;;;;1.07;1.07;;;5.90;99.90;;;;;;4954863;28;21188;-88
2022/01/05 01:59:12;;;;;;;1.17;0.97;;;5.90;99.90;;;;;;5003389;28;20212;-88
2022/01/05 02:01:39;;;;;;;8.53;1.33;;;5.90;99.90;;;;;;4970779;28;20799;-88
2022/01/05 02:04:06;;;;;;;0.23;0.23;;;5.90;99.90;;;;;;4986693;28;20266;-90
2022/01/05 02:06:32;;;;;;;10.13;3.47;;;5.90;99.90;;;;;;4988077;28;20230;-89
2022/01/05 02:09:03;;;;;;;5.77;1.20;;;5.90;99.90;;;;;;4970548;28;20724;-89
2022/01/05 02:11:30;;;;;;;1.33;1.23;;;5.90;99.90;;;;;;4975108;28;20682;-88
2022/01/05 02:13:56;;;;;;;0.50;0.50;;;6.00;99.90;;;;;;4975329;28;20603;-88
2022/01/05 02:16:29;;;;;;;0.33;0.33;;;6.00;99.90;;;;;;4958152;28;20208;-88
2022/01/05 02:18:58;;;;;;;2.67;1.50;;;6.10;99.90;;;;;;4990769;28;20262;-88
2022/01/05 02:21:32;;;;;;;0.30;0.30;;;6.10;99.90;;;;;;4959483;28;20270;-88
2022/01/05 02:23:58;;;;;;;0.87;0.70;;;6.10;99.90;;;;;;4992221;28;20212;-90
2022/01/05 02:26:24;;;;;;;2.67;0.60;;;6.10;99.90;;;;;;4990512;28;20187;-88
2022/01/05 02:28:50;;;;;;;6.50;2.53;;;6.10;99.90;;;;;;4990745;28;20669;-88
2022/01/05 02:31:16;;;;;;;5.20;0.77;;;6.20;99.90;;;;;;4990461;28;20242;-90
2022/01/05 02:33:42;;;;;;;0.40;0.40;;;6.10;99.90;;;;;;4958580;28;20215;-90
2022/01/05 02:36:10;;;;;;;0.90;0.90;;;6.10;99.90;;;;;;4991264;28;20223;-90
2022/01/05 02:38:36;;;;;;;2.33;0.73;;;6.00;99.90;;;;;;4989956;28;20254;-87
2022/01/05 02:41:08;;;;;;;5.87;0.77;;;5.80;99.90;;;;;;4958059;28;20196;-87
2022/01/05 02:43:35;;;;;;;3.27;1.23;;;5.60;99.90;;;;;;4990447;28;20223;-87
2022/01/05 02:46:01;;;;;;;0.20;0.20;;;5.60;99.90;;;;;;4990123;28;20220;-88
2022/01/05 02:48:32;;;;;;;0.47;0.47;;;5.60;99.90;;;;;;4973819;28;20219;-88
2022/01/05 02:50:59;;;;;;;1.90;1.33;;;5.50;99.90;;;;;;4959028;28;20764;-87
2022/01/05 02:53:25;;;;;;;2.47;0.50;;;5.50;99.90;;;;;;4990303;28;20279;-87
2022/01/05 02:55:52;;;;;;;0.30;0.30;;;5.50;99.90;;;;;;4973119;28;20280;-87
2022/01/05 02:58:18;;;;;;;0.70;0.70;;;5.50;99.90;;;;;;4990076;28;20306;-87
2022/01/05 03:00:44;;;;;;;2.07;1.87;;;5.50;99.90;;;;;;4973899;28;20231;-87
2022/01/05 03:03:10;;;;;;;0.33;0.33;;;5.50;99.90;;;;;;4957508;28;20220;-86
2022/01/05 03:05:36;;;;;;;0.57;0.33;;;5.50;99.90;;;;;;4973120;28;20192;-88
2022/01/05 03:08:03;;;;;;;0.63;0.60;;;5.70;99.90;;;;;;4990682;28;20271;-87
2022/01/05 03:10:29;;;;;;;0.80;0.80;;;5.70;99.90;;;;;;4973493;28;20251;-87
2022/01/05 03:12:55;;;;;;;0.73;0.73;;;5.60;99.90;;;;;;4957939;28;20247;-89
2022/01/05 03:15:21;;;;;;;0.40;0.40;;;5.50;99.90;;;;;;4974250;28;20224;-87
2022/01/05 03:17:47;;;;;;;0.40;0.40;;;5.50;99.90;;;;;;4990050;28;20226;-87
2022/01/05 03:20:14;;;;;;;0.53;0.53;;;5.50;99.90;;;;;;4992161;28;20311;-87
2022/01/05 03:22:40;;;;;;;0.40;0.40;;;5.50;99.90;;;;;;4988895;28;20303;-87
2022/01/05 03:25:07;;;;;;;0.30;0.30;;;5.60;99.90;;;;;;4990368;28;20238;-89
2022/01/05 03:27:33;;;;;;;0.70;0.70;;;5.70;99.90;;;;;;4990817;28;20696;-88
2022/01/05 03:30:00;;;;;;;1.13;1.03;;;5.70;99.90;;;;;;4989112;28;20226;-87
2022/01/05 03:32:32;;;;;;;0.93;0.70;;;5.60;99.90;;;;;;4973886;28;20558;-87
2022/01/05 03:34:59;;;;;;;0.27;0.27;;;5.50;99.90;;;;;;4989724;28;20269;-86
2022/01/05 03:37:24;;;;;;;2.47;0.40;;;5.50;99.90;;;;;;4972922;28;20224;-87
2022/01/05 03:39:50;;;;;;;0.30;0.30;;;5.50;99.90;;;;;;4956689;28;20435;-88
2022/01/05 03:42:16;;;;;;;6.43;1.70;;;5.50;99.90;;;;;;4957308;28;20219;-87
2022/01/05 03:44:41;;;;;;;0.20;0.20;;;5.50;99.90;;;;;;4973808;28;20196;-89
2022/01/05 03:47:07;;;;;;;0.30;0.30;;;5.50;99.90;;;;;;4973510;28;20272;-86
2022/01/05 03:49:33;;;;;;;0.20;0.20;;;5.50;99.90;;;;;;4958151;28;20226;-87
2022/01/05 03:51:59;;;;;;;1.60;1.50;;;5.40;99.90;;;;;;4956859;28;20216;-87
2022/01/05 03:54:24;;;;;;;0.57;0.40;;;5.50;99.90;;;;;;4972102;28;20227;-88
2022/01/05 03:56:50;;;;;;;0.33;0.33;;;5.60;99.90;;;;;;4956852;28;20219;-86
2022/01/05 03:59:16;;;;;;;0.47;0.47;;;5.60;99.90;;;;;;4972502;28;20215;-86
2022/01/05 04:01:42;;;;;;;0.33;0.33;;;5.60;99.90;;;;;;4970800;28;20239;-90
2022/01/05 04:04:07;;;;;;;0.20;0.20;;;5.70;99.90;;;;;;4956878;28;20562;-87
2022/01/05 04:06:33;;;;;;;0.30;0.30;;;5.90;99.90;;;;;;4972918;28;20279;-87
2022/01/05 04:08:59;;;;;;;1.33;1.33;;;5.80;99.90;;;;;;4956343;28;20744;-88
2022/01/05 04:11:25;;;;;;;0.20;0.20;;;5.80;99.90;;;;;;4956893;28;20215;-88
2022/01/05 04:13:50;;;;;;;2.43;0.50;;;5.70;99.90;;;;;;4973554;28;20266;-89
2022/01/05 04:16:16;;;;;;;0.20;0.20;;;5.50;99.90;;;;;;4973256;28;20251;-87
2022/01/05 04:18:42;;;;;;;5.27;0.63;;;5.60;99.90;;;;;;4971779;28;20235;-88
2022/01/05 04:21:07;;;;;;;0.70;0.70;;;5.60;99.90;;;;;;4973312;28;20222;-87
2022/01/05 04:23:33;;;;;;;0.30;0.30;;;5.70;99.90;;;;;;4971490;28;20227;-89
2022/01/05 04:25:59;;;;;;;0.20;0.20;;;5.90;99.90;;;;;;4989016;28;20578;-89
2022/01/05 04:28:25;;;;;;;0.53;0.50;;;5.90;99.90;;;;;;4955078;28;20220;-87
2022/01/05 04:30:50;;;;;;;1.70;0.40;;;5.90;99.90;;;;;;4972265;28;20212;-89
2022/01/05 04:33:16;;;;;;;0.40;0.40;;;6.00;99.90;;;;;;4972424;28;20349;-88
2022/01/05 04:35:42;;;;;;;2.53;0.70;;;6.00;99.90;;;;;;4956174;28;20246;-87
2022/01/05 04:38:07;;;;;;;0.77;0.77;;;6.00;99.90;;;;;;4972974;28;20633;-88
2022/01/05 04:40:33;;;;;;;0.73;0.30;;;6.00;99.90;;;;;;4956008;28;20222;-87
2022/01/05 04:42:59;;;;;;;5.10;1.90;;;6.00;99.90;;;;;;4956737;28;20270;-88
2022/01/05 04:45:25;;;;;;;0.27;0.27;;;5.90;99.90;;;;;;4956952;28;20618;-87
2022/01/05 04:47:50;;;;;;;0.20;0.20;;;5.80;99.90;;;;;;4988503;28;20214;-87
2022/01/05 04:50:18;;;;;;;4.20;0.67;;;5.80;99.90;;;;;;4973130;28;20187;-89
2022/01/05 04:52:44;;;;;;;0.63;0.63;;;5.80;99.90;;;;;;4971986;28;20310;-87
2022/01/05 04:55:10;;;;;;;0.40;0.40;;;5.80;99.90;;;;;;4988444;28;20346;-87
2022/01/05 04:57:36;;;;;;;0.67;0.67;;;5.80;99.90;;;;;;4972148;28;20242;-87
2022/01/05 05:00:03;;;;;;;0.63;0.63;;;5.80;99.90;;;;;;4971446;28;20631;-87
2022/01/05 05:02:29;;;;;;;0.30;0.30;;;5.80;99.90;;;;;;4970941;28;20188;-88
2022/01/05 05:04:54;;;;;;;1.60;0.63;;;5.80;99.90;;;;;;4972619;28;20558;-86
2022/01/05 05:07:20;;;;;;;0.30;0.30;;;5.80;99.90;;;;;;4967807;28;20221;-86
2022/01/05 05:09:46;;;;;;;1.10;0.40;;;5.00;99.90;;;;;;4945803;28;20240;-86
2022/01/05 05:12:12;;;;;;;1.37;1.27;;;4.50;99.90;;;;;;4958589;28;20219;-87
2022/01/05 05:14:37;;;;;;;0.30;0.30;;;4.70;99.90;;;;;;4960133;28;20208;-87
2022/01/05 05:17:03;;;;;;;3.87;0.93;;;4.80;99.90;;;;;;4961665;28;20622;-86
2022/01/05 05:19:31;;;;;;;0.27;0.27;;;5.00;99.90;;;;;;4976150;28;20305;-86
2022/01/05 05:21:57;;;;;;;0.27;0.27;;;5.20;99.90;;;;;;4945253;28;20219;-86
2022/01/05 05:24:23;;;;;;;0.30;0.30;;;5.30;99.90;;;;;;4977062;28;20212;-86
2022/01/05 05:26:49;;;;;;;0.50;0.50;;;5.50;99.90;;;;;;4960112;28;20227;-86
2022/01/05 05:29:15;;;;;;;0.20;0.20;;;5.70;99.90;;;;;;4961689;28;20203;-85
2022/01/05 05:31:40;;;;;;;0.77;0.50;;;5.80;99.90;;;;;;4945664;28;20219;-86
2022/01/05 05:34:06;;;;;;;0.63;0.63;;;5.90;99.90;;;;;;4958374;28;20232;-88
2022/01/05 05:36:32;;;;;;;1.90;0.40;;;5.90;99.90;;;;;;4945779;28;20255;-85
2022/01/05 05:38:58;;;;;;;0.33;0.33;;;6.10;99.90;;;;;;4942552;28;20598;-86
2022/01/05 05:41:23;;;;;;;2.03;0.50;;;6.10;99.90;;;;;;4943416;28;20203;-88
2022/01/05 05:43:49;;;;;;;2.07;0.77;;;6.20;99.90;;;;;;4980032;28;20192;-87
2022/01/05 05:46:16;;;;;;;0.57;0.57;;;6.20;99.90;;;;;;4967027;28;20704;-87
2022/01/05 05:48:43;;;;;;;0.77;0.77;;;6.20;99.90;;;;;;4951420;28;20744;-87
2022/01/05 05:51:09;;;;;;;0.97;0.40;;;6.20;99.90;;;;;;4982477;28;20208;-87
2022/01/05 05:53:34;;;;;;;4.33;0.43;;;6.30;99.90;;;;;;4983481;28;20196;-86
2022/01/05 05:56:00;;;;;;;0.20;0.20;;;6.30;99.90;;;;;;4967662;28;20192;-85
2022/01/05 05:58:26;;;;;;;0.27;0.27;;;6.40;99.90;;;;;;4946885;28;20705;-86
2022/01/05 06:00:52;;;;;;;0.57;0.57;;;6.40;99.90;;;;;;4950189;28;20749;-87
2022/01/05 06:03:17;;;;;;;1.80;0.40;;;6.30;99.90;;;;;;4950248;28;20295;-87
2022/01/05 06:05:43;;;;;;;0.27;0.27;;;6.20;99.90;;;;;;4947370;28;20741;-87
2022/01/05 06:08:09;;;;;;;0.20;0.20;;;6.20;99.90;;;;;;4967756;28;20196;-87
2022/01/05 06:10:35;;;;;;;6.60;1.50;;;6.20;99.90;;;;;;4949066;28;20219;-87
2022/01/05 06:13:01;;;;;;;0.30;0.30;;;6.20;99.90;;;;;;4951470;28;20242;-87
2022/01/05 06:15:27;;;;;;;0.20;0.20;;;6.20;99.90;;;;;;4984281;28;20216;-86
2022/01/05 06:17:55;;;;;;;0.37;0.37;;;6.30;99.90;;;;;;4965900;28;20231;-86
2022/01/05 06:20:23;;;;;;;0.20;0.20;;;6.30;99.90;;;;;;4967319;28;20216;-87
2022/01/05 06:22:49;;;;;;;1.43;0.70;;;6.30;99.90;;;;;;4976494;28;20226;-87
2022/01/05 06:25:15;;;;;;;0.20;0.20;;;6.40;99.90;;;;;;4961027;28;20204;-86
2022/01/05 06:27:42;;;;;;;0.60;0.60;;;6.40;99.90;;;;;;4960709;28;20256;-88
2022/01/05 06:30:09;;;;;;;1.50;0.73;;;6.40;99.90;;;;;;4976949;28;20235;-87
2022/01/05 06:32:41;;;;;;;0.57;0.57;;;6.40;99.90;;;;;;4975870;28;20215;-90
2022/01/05 06:35:07;;;;;;;0.20;0.20;;;6.50;99.90;;;;;;4994603;28;20783;-87
2022/01/05 06:37:33;;;;;;;0.50;0.37;;;6.50;99.90;;;;;;4960937;28;20226;-87
2022/01/05 06:39:59;;;;;;;0.70;0.70;;;6.50;99.90;;;;;;4975691;28;20220;-86
2022/01/05 06:42:25;;;;;;;2.90;1.30;;;6.50;99.90;;;;;;4976710;28;20219;-87
2022/01/05 06:44:50;;;;;;;1.87;0.77;;;6.50;99.90;;;;;;4977775;28;20225;-86
2022/01/05 06:47:16;;;;;;;0.30;0.30;;;6.50;99.90;;;;;;4977302;28;20279;-88
2022/01/05 06:49:43;;;;;;;0.87;0.30;;;6.60;99.90;;;;;;4992522;28;20302;-86
2022/01/05 06:52:11;;;;;;;0.40;0.40;;;6.60;99.90;;;;;;4976951;28;20223;-87
2022/01/05 06:54:40;;;;;;;0.10;0.10;;;6.60;99.90;;;;;;4976388;28;20212;-88
2022/01/05 06:57:07;;;;;;;0.20;0.20;;;6.40;99.90;;;;;;5005036;28;20666;-87
2022/01/05 06:59:33;;;;;;;2.07;1.97;;;6.30;99.90;;;;;;4974077;28;20206;-89
2022/01/05 07:01:59;;;;;;;0.20;0.20;;;6.30;99.90;;;;;;4959165;28;20176;-87
2022/01/05 07:04:25;;;;;;;0.60;0.60;;;6.30;99.90;;;;;;4957688;28;20605;-89
2022/01/05 07:06:50;;;;;;;1.63;1.57;;;6.30;99.90;;;;;;4957339;28;20832;-86
2022/01/05 07:09:16;;;;;;;0.60;0.57;;;6.20;99.90;;;;;;4957778;28;20299;-87
2022/01/05 07:11:43;;;;;;;0.20;0.20;;;6.30;99.90;;;;;;4957265;28;20196;-88
2022/01/05 07:14:09;;;;;;;3.80;1.20;;;6.40;99.90;;;;;;4991781;28;20196;-86
2022/01/05 07:16:34;;;;;;;0.33;0.33;;;6.50;99.90;;;;;;4989800;28;20278;-88
2022/01/05 07:19:01;;;;;;;0.50;0.47;;;6.60;99.90;;;;;;4957988;28;20247;-87
2022/01/05 07:21:27;;;;;;;0.30;0.30;;;6.70;99.90;;;;;;4989247;28;20310;-89
2022/01/05 07:23:52;;;;;;;4.03;1.07;;;6.80;99.90;;;;;;4990505;28;20208;-88
2022/01/05 07:26:21;;;;;;;1.20;0.63;;;6.90;99.90;;;;;;4958026;28;20672;-88
2022/01/05 07:28:47;;;;;;;0.83;0.77;;;6.80;99.90;;;;;;4956838;28;20697;-87
2022/01/05 07:31:13;;;;;;;4.20;0.80;;;6.40;99.90;;;;;;4989532;28;20701;-88
2022/01/05 07:33:39;;;;;;;1.70;0.60;;;6.30;99.90;;;;;;4957882;28;20219;-88
2022/01/05 07:36:05;;;;;;;0.43;0.43;;;6.30;99.90;;;;;;4957057;28;20223;-90
2022/01/05 07:38:30;;;;;;;4.13;0.80;;;6.30;99.90;;;;;;4973344;28;20198;-88
2022/01/05 07:40:59;;;;;;;1.00;0.93;;;6.30;99.90;;;;;;4975437;28;20204;-88
2022/01/05 07:43:25;;;;;;;0.57;0.57;;;6.40;99.90;;;;;;4957821;28;20973;-89
2022/01/05 07:45:51;;;;;;;2.37;2.00;;;6.50;99.90;;;;;;4973273;28;20307;-87
2022/01/05 07:48:17;;;;;;;5.27;1.57;;;6.60;99.90;;;;;;4973044;28;20212;-88
2022/01/05 07:50:42;;;;;;;0.30;0.30;;;6.80;99.90;;;;;;4955095;28;20223;-89
2022/01/05 07:53:08;;;;;;;1.10;1.00;;;6.90;99.90;;;;;;4972831;28;20679;-89
2022/01/05 07:55:35;;;;;;;0.10;0.10;;;7.10;99.90;;;;;;4957373;28;20748;-87
2022/01/05 07:58:00;;;;;;;0.40;0.40;;;7.10;99.90;;;;;;4958492;28;20208;-88
2022/01/05 08:00:26;;;;;;;2.40;1.37;;;7.00;99.90;;;;;;4957275;28;20227;-88
2022/01/05 08:02:52;;;;;;;1.83;0.50;;;6.90;99.90;;;;;;4960119;28;20270;-89
2022/01/05 08:05:18;;;;;;;0.10;0.10;;;6.80;99.90;;;;;;4977709;28;20657;-88
2022/01/05 08:07:45;;;;;;;0.40;0.33;;;6.70;99.90;;;;;;4971276;28;20209;-89
2022/01/05 08:10:11;;;;;;;0.10;0.10;;;6.70;99.90;;;;;;4974017;28;20216;-87
2022/01/05 08:12:37;;;;;;;0.40;0.33;;;6.70;99.90;;;;;;4990149;28;20216;-89
2022/01/05 08:15:03;;;;;;;0.43;0.43;;;6.70;99.90;;;;;;4988893;28;20239;-89
2022/01/05 08:17:29;;;;;;;0.10;0.10;;;6.80;99.90;;;;;;4975141;28;20191;-90
2022/01/05 08:19:54;;;;;;;0.10;0.10;;;6.90;99.90;;;;;;4974602;28;20204;-91
2022/01/05 08:22:26;;;;;;;7.13;0.77;;;7.00;99.90;;;;;;4959000;28;20223;-88
2022/01/05 08:24:52;;;;;;;0.20;0.20;;;7.20;99.90;;;;;;4975759;28;20224;-90
2022/01/05 08:27:17;;;;;;;1.70;0.30;;;7.30;99.90;;;;;;4974105;28;20282;-89
2022/01/05 08:29:43;;;;;;;0.10;0.10;;;7.40;99.90;;;;;;4957430;28;20220;-91
2022/01/05 08:32:09;;;;;;;1.50;0.73;;;7.50;99.90;;;;;;4976902;28;20208;-91
2022/01/05 08:34:35;;;;;;;0.13;0.13;;;7.30;99.90;;;;;;4960514;28;20204;-91
2022/01/05 08:37:01;;;;;;;0.10;0.10;;;7.20;99.90;;;;;;4988462;28;20648;-89
2022/01/05 08:39:27;;;;;;;0.20;0.20;;;7.10;99.90;;;;;;4960277;28;20259;-91
2022/01/05 08:41:53;;;;;;;0.40;0.40;;;7.10;99.90;;;;;;4981548;28;20203;-90
2022/01/05 08:44:19;;;;;;;0.17;0.17;;;6.90;99.90;;;;;;4980123;28;20188;-88
2022/01/05 08:46:44;;;;;;;0.37;0.37;;;6.80;99.90;;;;;;4959522;28;20576;-90
2022/01/05 08:49:11;;;;;;;0.70;0.70;;;7.10;99.90;;;;;;4990322;28;20693;-90
2022/01/05 08:51:38;;;;;;;0.20;0.20;;;7.30;99.90;;;;;;4989224;28;20319;-88
2022/01/05 08:54:05;;;;;;;0.20;0.20;;;7.20;99.90;;;;;;4976244;28;20223;-90
2022/01/05 08:56:31;;;;;;;1.23;1.20;;;7.20;99.90;;;;;;4971212;28;20570;-88
2022/01/05 08:58:57;;;;;;;1.57;0.50;;;7.10;99.90;;;;;;4989368;28;20222;-88
2022/01/05 09:01:25;;;;;;;0.43;0.43;;;7.30;99.90;;;;;;4971943;28;20232;-91
2022/01/05 09:03:52;;;;;;;1.33;1.23;;;7.50;99.90;;;;;;4973798;28;20572;-89
2022/01/05 09:06:19;;;;;;;0.10;0.10;;;7.80;99.90;;;;;;4989968;28;20203;-89
2022/01/05 09:08:45;;;;;;;1.13;0.87;;;7.80;99.90;;;;;;4955975;28;20215;-89
2022/01/05 09:11:11;;;;;;;1.20;0.93;;;7.90;99.90;;;;;;4972716;28;20199;-88
2022/01/05 09:13:36;;;;;;;1.80;1.60;;;7.90;99.90;;;;;;4989081;28;20204;-89
2022/01/05 09:16:03;;;;;;;0.57;0.37;;;7.90;99.90;;;;;;4955882;28;20208;-88
2022/01/05 09:18:29;;;;;;;5.20;0.40;;;7.80;99.90;;;;;;4988116;28;20230;-89
2022/01/05 09:20:55;;;;;;;0.30;0.30;;;7.80;99.90;;;;;;4987903;28;20231;-88
2022/01/05 09:23:20;;;;;;;1.57;0.83;;;7.80;99.90;;;;;;4973526;28;20551;-89
2022/01/05 09:25:46;;;;;;;0.70;0.70;;;7.90;99.90;;;;;;4973203;28;20298;-89
2022/01/05 09:28:15;;;;;;;0.30;0.30;;;7.80;99.90;;;;;;4972364;28;20287;-89
2022/01/05 09:30:45;;;;;;;2.23;0.93;;;7.80;99.90;;;;;;4974400;28;20238;-88
2022/01/05 09:33:13;;;;;;;0.43;0.43;;;7.80;99.90;;;;;;4973426;28;20227;-89
2022/01/05 09:35:39;;;;;;;0.27;0.10;;;7.70;99.90;;;;;;4989066;28;20570;-88
2022/01/05 09:43:16;;;;;;;0.97;0.67;;;7.70;99.90;;;;;;4974534;28;20200;-89
2022/01/05 09:46:12;;;;;;;0.60;0.60;;;7.40;99.90;;;;;;4972371;28;20204;-89
2022/01/05 09:49:00;;;;;;;2.43;1.27;;;7.40;99.90;;;;;;5003402;28;20243;-90
2022/01/05 09:51:30;;;;;;;0.30;0.30;;;7.50;99.90;;;;;;4987954;28;20275;-89
2022/01/05 09:53:59;;;;;;;0.70;0.47;;;7.50;99.90;;;;;;5002837;28;20216;-89
2022/01/05 09:56:25;;;;;;;0.23;0.23;;;7.60;99.90;;;;;;4988403;28;20191;-89
2022/01/05 09:58:51;;;;;;;0.20;0.20;;;7.70;99.90;;;;;;4970628;28;20177;-91
2022/01/05 10:01:17;;;;;;;1.70;1.13;;;7.80;99.90;;;;;;4954413;28;20204;-89
2022/01/05 10:03:43;;;;;;;4.23;2.47;;;8.00;99.90;;;;;;4954873;28;20211;-88
2022/01/05 10:06:11;;;;;;;2.33;0.40;;;8.00;99.90;;;;;;4954607;28;20212;-89
2022/01/05 10:08:36;;;;;;;0.67;0.67;;;8.00;99.90;;;;;;4971404;28;20180;-91
2022/01/05 10:11:02;;;;;;;0.20;0.20;;;8.10;99.90;;;;;;4954676;28;20192;-88
2022/01/05 10:13:28;;;;;;;16.43;1.03;;;8.20;99.90;;;;;;4971297;28;20306;-87
2022/01/05 10:15:55;;;;;;;1.77;0.87;;;8.20;99.90;;;;;;4971380;28;20266;-88
2022/01/05 10:18:23;;;;;;;4.53;2.77;;;8.40;99.90;;;;;;4954684;28;20274;-87
2022/01/05 10:21:03;;;;;;;0.20;0.20;;;8.60;99.90;;;;;;4971216;28;20768;-88
2022/01/05 10:23:49;;;;;;;0.20;0.20;;;8.40;99.90;;;;;;4986979;28;20187;-87
2022/01/05 10:26:27;;;;;;;8.73;0.60;;;8.20;99.90;;;;;;5004234;28;20192;-89
2022/01/05 10:29:21;;;;;;;0.30;0.20;;;8.20;99.90;;;;;;4985365;28;20659;-89
2022/01/05 10:31:55;;;;;;;0.20;0.20;;;8.10;99.90;;;;;;4988631;28;20224;-89
2022/01/05 10:34:21;;;;;;;7.23;1.63;;;8.10;99.90;;;;;;4990834;28;20323;-92
2022/01/05 10:36:52;;;;;;;0.77;0.40;;;8.10;99.90;;;;;;4989771;28;20670;-88
2022/01/05 10:39:20;;;;;;;3.23;1.03;;;8.10;99.90;;;;;;4974886;28;20266;-90
2022/01/05 10:41:47;;;;;;;0.67;0.30;;;8.20;99.90;;;;;;5006346;28;20218;-89
2022/01/05 10:44:23;;;;;;;1.57;0.50;;;8.20;99.90;;;;;;4991694;28;20209;-89
2022/01/05 10:46:52;;;;;;;0.43;0.43;;;8.20;99.90;;;;;;4991075;28;20711;-89
2022/01/05 10:49:39;;;;;;;1.70;0.47;;;8.40;99.90;;;;;;5007039;28;20734;-90
2022/01/05 10:52:23;;;;;;;0.30;0.30;;;8.40;99.90;;;;;;4990506;28;20212;-89
2022/01/05 10:54:50;;;;;;;1.23;0.67;;;8.50;99.90;;;;;;4992104;28;20230;-90
2022/01/05 10:57:17;;;;;;;4.40;3.07;;;8.50;99.90;;;;;;4990718;28;20215;-88
2022/01/05 10:59:48;;;;;;;0.47;0.47;;;8.60;99.90;;;;;;4973616;28;21322;-88
2022/01/05 11:02:25;;;;;;;12.00;1.03;;;8.40;99.90;;;;;;4991405;28;20176;-87
2022/01/05 11:04:53;;;;;;;0.27;0.27;;;8.00;99.90;;;;;;4990155;28;20211;-88
2022/01/05 11:07:24;;;;;;;0.43;0.40;;;7.60;99.90;;;;;;4989300;28;20216;-88
2022/01/05 11:09:58;;;;;;;0.20;0.20;;;7.50;99.90;;;;;;4991223;28;20208;-88
2022/01/05 11:12:36;;;;;;;0.20;0.20;;;7.40;99.90;;;;;;4989829;28;20699;-88
2022/01/05 11:15:23;;;;;;;2.10;2.00;;;7.40;99.90;;;;;;4988283;28;20788;-89
2022/01/05 11:18:08;;;;;;;3.63;0.60;;;7.60;99.90;;;;;;4979691;28;20213;-89
2022/01/05 11:20:38;;;;;;;1.37;0.77;;;7.80;99.90;;;;;;4974420;28;20228;-88
2022/01/05 11:23:06;;;;;;;1.27;1.17;;;7.90;99.90;;;;;;4978243;28;20195;-89
2022/01/05 11:25:35;;;;;;;0.10;0.10;;;8.10;99.90;;;;;;4962416;28;20217;-88
2022/01/05 11:28:02;;;;;;;0.20;0.20;;;8.30;99.90;;;;;;4980327;28;20598;-88
2022/01/05 11:30:28;;;;;;;2.90;0.90;;;8.40;99.90;;;;;;4961569;28;20346;-87
2022/01/05 11:32:55;;;;;;;0.47;0.47;;;8.40;99.90;;;;;;4965619;28;20216;-89
2022/01/05 11:35:21;;;;;;;6.70;6.13;;;8.50;99.90;;;;;;4974822;28;20188;-90
2022/01/05 11:37:47;;;;;;;0.10;0.10;;;8.60;99.90;;;;;;4973241;28;20315;-87
2022/01/05 11:40:13;;;;;;;0.20;0.20;;;8.70;99.90;;;;;;4990327;28;20227;-89
2022/01/05 11:42:40;;;;;;;0.13;0.13;;;8.80;99.90;;;;;;4956708;28;20270;-92
2022/01/05 11:45:10;;;;;;;6.80;0.97;;;8.70;99.90;;;;;;4974539;28;20204;-89
2022/01/05 11:47:38;;;;;;;2.30;0.43;;;8.70;99.90;;;;;;4990787;28;20223;-88
2022/01/05 11:50:13;;;;;;;0.40;0.33;;;8.80;99.90;;;;;;4990291;28;20242;-90
2022/01/05 11:52:59;;;;;;;2.43;1.90;;;8.70;99.90;;;;;;4990220;28;20215;-90
2022/01/05 11:55:27;;;;;;;1.23;0.73;;;8.70;99.90;;;;;;4987391;28;20242;-89
2022/01/05 11:58:18;;;;;;;2.23;0.43;;;8.70;99.90;;;;;;4992495;28;20216;-89
2022/01/05 12:00:46;;;;;;;1.13;0.63;;;8.30;99.90;;;;;;4993126;28;20298;-90
2022/01/05 12:03:12;;;;;;;1.70;1.60;;;8.30;99.90;;;;;;4993511;28;20212;-89
2022/01/05 12:06:06;;;;;;;3.83;2.50;;;8.20;99.90;;;;;;4976565;28;20228;-90
2022/01/05 12:08:55;;;;;;;0.40;0.40;;;8.00;99.90;;;;;;4986981;28;20564;-89
2022/01/05 12:11:29;;;;;;;0.30;0.30;;;8.10;99.90;;;;;;4960022;28;20225;-90
2022/01/05 12:13:56;;;;;;;4.40;1.40;;;8.10;99.90;;;;;;4991993;28;20208;-90
2022/01/05 12:16:23;;;;;;;1.73;0.70;;;8.10;99.90;;;;;;4974258;28;20215;-89
2022/01/05 12:19:12;;;;;;;0.40;0.40;;;8.10;99.90;;;;;;4991904;28;20291;-89
2022/01/05 12:21:45;;;;;;;1.53;1.03;;;8.20;99.90;;;;;;5007151;28;20235;-88
2022/01/05 12:24:12;;;;;;;0.50;0.50;;;8.30;99.90;;;;;;4982722;28;20216;-89
2022/01/05 12:26:38;;;;;;;0.97;0.97;;;8.40;99.90;;;;;;4981473;28;20188;-89
2022/01/05 12:29:04;;;;;;;0.30;0.30;;;8.50;99.90;;;;;;4968927;28;20226;-89
2022/01/05 12:31:49;;;;;;;0.43;0.43;;;8.50;99.90;;;;;;4977224;28;20216;-89
2022/01/05 12:34:52;;;;;;;0.80;0.77;;;8.50;99.90;;;;;;4990115;28;20216;-89
2022/01/05 12:37:44;;;;;;;1.87;1.13;;;8.60;99.90;;;;;;4979184;28;20774;-88
2022/01/05 12:40:29;;;;;;;1.40;1.20;;;8.70;99.90;;;;;;4973523;28;20236;-88
2022/01/05 12:43:10;;;;;;;10.97;0.90;;;8.70;99.90;;;;;;4981123;28;20227;-89
2022/01/05 12:45:51;;;;;;;1.60;0.80;;;8.50;99.90;;;;;;4995101;28;20693;-88
2022/01/05 12:48:32;;;;;;;1.60;0.73;;;8.60;99.90;;;;;;4998882;28;20223;-89
2022/01/05 12:51:22;;;;;;;0.23;0.23;;;8.70;99.90;;;;;;4974953;28;20247;-89
2022/01/05 12:54:18;;;;;;;1.73;1.10;;;8.60;99.90;;;;;;4979936;28;20259;-90
2022/01/05 12:56:50;;;;;;;1.80;1.13;;;8.70;99.90;;;;;;4973360;28;20212;-88
2022/01/05 12:59:16;;;;;;;2.30;0.77;;;8.80;99.90;;;;;;4976368;28;20205;-88
2022/01/05 13:01:44;;;;;;;0.83;0.50;;;8.80;99.90;;;;;;4983455;28;20212;-89
2022/01/05 13:04:12;;;;;;;5.87;1.50;;;8.70;99.90;;;;;;4985210;28;20657;-89
2022/01/05 13:06:40;;;;;;;0.40;0.40;;;8.70;99.90;;;;;;4961016;28;20213;-88
2022/01/05 13:09:12;;;;;;;0.87;0.80;;;8.20;99.90;;;;;;4969062;28;20212;-90